^^
MeteoGriva-Weather Station Historical Data
 
Daily Summary for January 22, 2020 Units:  Metric    English   Both
Daily Weekly Monthly Yearly Custom
  Current: High: Low: Average:
Temperature: 7.6 °C 11.9 °C -0.5 °C 4.7 °C
Dew Point: -6.3 °C 3.7 °C -8.3 °C -1.4 °C
Humidity: 36.9% 85.9% 29.3% 67%
Wind Speed: 0.3km/h 1.7km/h 0km/h 0.1km/h
Wind Gust: 7.9km/h 7.9km/h - -
WindWNW - - SSE
Pressure: 1023.4 hPa 1037.2 hPa 0.0 hPa -
Precipitation: 0.0 mm      
Historical Graphs
 
 
Tabular Data for January 22, 2020
Time Temperature Dew Point Pressure Wind Wind Speed Wind Gust Humidity Rainfall Rate (Hourly) solar
00:04 1.1 °C -2.2 °C 1037.2 hPa Calm     78.6% 0.0 mm 0 W/m2
00:09 1.1 °C -2.1 °C 1037.2 hPa Calm     79.2% 0.0 mm 0 W/m2
00:14 1.1 °C -2 °C 1037.2 hPa Calm     80% 0.0 mm 0 W/m2
00:19 1.1 °C -2 °C 1037.2 hPa Calm     80% 0.0 mm 0 W/m2
00:24 1.1 °C -2 °C 1037.2 hPa Calm     80% 0.0 mm 0 W/m2
00:29 1.1 °C -2 °C 1036.9 hPa Calm     79.7% 0.0 mm 0 W/m2
00:34 1.2 °C -2 °C 1036.9 hPa Calm     79% 0.0 mm 0 W/m2
00:39 1.2 °C -2 °C 1036.9 hPa Calm     79.4% 0.0 mm 0 W/m2
00:44 1.1 °C -2 °C 1036.9 hPa Calm     79.4% 0.0 mm 0 W/m2
00:49 1.1 °C -2 °C 1036.6 hPa Calm     80% 0.0 mm 0 W/m2
00:54 0.9 °C -2.2 °C 1036.6 hPa SSW 0.3 km/h 4 km/h 80% 0.0 mm 0 W/m2
00:59 0.8 °C -2.2 °C 1036.6 hPa SW 0.1 km/h 4 km/h 80.2% 0.0 mm 0 W/m2
01:04 0.8 °C -2.3 °C 1036.2 hPa Calm   4 km/h 80% 0.0 mm 0 W/m2
01:09 0.8 °C -2.3 °C 1036.2 hPa Calm     80% 0.0 mm 0 W/m2
01:14 0.7 °C -2.3 °C 1036.2 hPa Calm   4 km/h 80.1% 0.0 mm 0 W/m2
01:19 0.8 °C -2.3 °C 1036.2 hPa Calm   4 km/h 80.1% 0.0 mm 0 W/m2
01:24 0.8 °C -2.2 °C 1035.9 hPa Calm     80.7% 0.0 mm 0 W/m2
01:29 0.8 °C -2.2 °C 1035.9 hPa Calm     80.6% 0.0 mm 0 W/m2
01:34 1.2 °C -1.9 °C 1035.9 hPa Calm   4 km/h 79.8% 0.0 mm 0 W/m2
01:39 1.2 °C -1.9 °C 1035.6 hPa Calm   4 km/h 80% 0.0 mm 0 W/m2
01:44 1.2 °C -1.9 °C 1035.9 hPa Calm     80% 0.0 mm 0 W/m2
01:49 1.1 °C -2 °C 1035.9 hPa Calm     80% 0.0 mm 0 W/m2
01:54 0.6 °C -2.3 °C 1035.6 hPa Calm     80.9% 0.0 mm 0 W/m2
01:59 0.6 °C -2.4 °C 1035.6 hPa SSW 0.1 km/h 4 km/h 80.2% 0.0 mm 0 W/m2
02:04 0.7 °C -2.5 °C 1035.6 hPa SW 0.3 km/h 4 km/h 79.3% 0.0 mm 0 W/m2
02:09 0.7 °C -2.7 °C 1035.6 hPa Calm     77.9% 0.0 mm 0 W/m2
02:14 1 °C -2.7 °C 1035.6 hPa Calm     76.9% 0.0 mm 0 W/m2
02:19 1 °C -2.7 °C 1035.6 hPa Calm     76.6% 0.0 mm 0 W/m2
02:24 0.9 °C -2.5 °C 1035.9 hPa Calm     78% 0.0 mm 0 W/m2
02:29 0.8 °C -2.3 °C 1035.6 hPa Calm     79.9% 0.0 mm 0 W/m2
02:34 0.5 °C -2.7 °C 1035.6 hPa Calm     79% 0.0 mm 0 W/m2
02:39 0.4 °C -2.6 °C 1035.9 hPa Calm     80% 0.0 mm 0 W/m2
02:44 0.4 °C -2.5 °C 1035.6 hPa Calm     81% 0.0 mm 0 W/m2
02:49 0.4 °C -2.5 °C 1035.6 hPa Calm     81% 0.0 mm 0 W/m2
02:54 0.2 °C -2.6 °C 1035.6 hPa Calm     81.6% 0.0 mm 0 W/m2
02:59 0.2 °C -2.5 °C 1035.6 hPa Calm     82% 0.0 mm 0 W/m2
03:04 0.1 °C -2.5 °C 1035.6 hPa Calm     82.6% 0.0 mm 0 W/m2
03:09 0.1 °C -2.4 °C 1035.6 hPa Calm     83% 0.0 mm 0 W/m2
03:14 0 °C -2.5 °C 1035.6 hPa Calm     83.2% 0.0 mm 0 W/m2
03:19 0 °C -2.4 °C 1035.6 hPa Calm     84% 0.0 mm 0 W/m2
03:24 0 °C -2.4 °C 1035.6 hPa Calm     84% 0.0 mm 0 W/m2
03:29 0 °C -2.4 °C 1035.6 hPa Calm     83.7% 0.0 mm 0 W/m2
03:34 -0.1 °C -2.5 °C 1035.2 hPa Calm     84% 0.0 mm 0 W/m2
03:39 -0.1 °C -2.4 °C 1035.2 hPa Calm     84.4% 0.0 mm 0 W/m2
03:44 -0.1 °C -2.3 °C 1034.9 hPa Calm     85% 0.0 mm 0 W/m2
03:49 -0.1 °C -2.3 °C 1035.2 hPa Calm     85% 0.0 mm 0 W/m2
03:54 -0.2 °C -2.4 °C 1034.9 hPa Calm     85% 0.0 mm 0 W/m2
03:59 -0.2 °C -2.4 °C 1034.9 hPa Calm     85% 0.0 mm 0 W/m2
04:04 -0.2 °C -2.4 °C 1034.9 hPa Calm     84.8% 0.0 mm 0 W/m2
04:09 -0.3 °C -2.5 °C 1034.5 hPa Calm     85.1% 0.0 mm 0 W/m2
04:14 -0.4 °C -2.6 °C 1034.5 hPa Calm     85.1% 0.0 mm 0 W/m2
04:19 -0.3 °C -2.5 °C 1034.5 hPa Calm     85% 0.0 mm 0 W/m2
04:24 -0.3 °C -2.5 °C 1034.9 hPa Calm     85% 0.0 mm 0 W/m2
04:29 -0.3 °C -2.5 °C 1034.5 hPa Calm     85% 0.0 mm 0 W/m2
04:34 -0.3 °C -2.5 °C 1034.5 hPa Calm     85% 0.0 mm 0 W/m2
04:39 -0.3 °C -2.5 °C 1034.5 hPa Calm     85% 0.0 mm 0 W/m2
04:44 -0.2 °C -2.4 °C 1034.5 hPa Calm     85% 0.0 mm 0 W/m2
04:49 -0.2 °C -2.4 °C 1034.2 hPa Calm     85% 0.0 mm 0 W/m2
04:54 -0.2 °C -2.4 °C 1034.5 hPa Calm     84.7% 0.0 mm 0 W/m2
04:59 -0.1 °C -2.3 °C 1034.5 hPa Calm     85% 0.0 mm 0 W/m2
05:04 -0.1 °C -2.3 °C 1034.2 hPa Calm     85% 0.0 mm 0 W/m2
05:09 -0.1 °C -2.3 °C 1034.2 hPa Calm     85% 0.0 mm 0 W/m2
05:14 -0.2 °C -2.4 °C 1034.2 hPa Calm     85% 0.0 mm 0 W/m2
05:19 -0.2 °C -2.4 °C 1034.2 hPa Calm     85% 0.0 mm 0 W/m2
05:24 -0.2 °C -2.4 °C 1033.9 hPa Calm     85% 0.0 mm 0 W/m2
05:29 -0.2 °C -2.5 °C 1033.9 hPa Calm     84.6% 0.0 mm 0 W/m2
05:34 -0.2 °C -2.4 °C 1033.9 hPa Calm     84.8% 0.0 mm 0 W/m2
05:39 -0.2 °C -2.4 °C 1033.9 hPa Calm     85% 0.0 mm 0 W/m2
05:44 -0.2 °C -2.4 °C 1033.9 hPa Calm     85% 0.0 mm 0 W/m2
05:49 -0.2 °C -2.4 °C 1033.9 hPa Calm     85% 0.0 mm 0 W/m2
05:54 -0.3 °C -2.5 °C 1033.9 hPa Calm     85.4% 0.0 mm 0 W/m2
05:59 -0.5 °C -2.7 °C 1033.9 hPa Calm     85.6% 0.0 mm 0 W/m2
06:04 -0.5 °C -2.6 °C 1033.9 hPa Calm     85.9% 0.0 mm 0 W/m2
06:09 -0.5 °C -2.7 °C 1033.9 hPa Calm     85.4% 0.0 mm 0 W/m2
06:14 -0.5 °C -2.7 °C 1033.9 hPa Calm     85% 0.0 mm 0 W/m2
06:19 -0.5 °C -2.7 °C 1033.9 hPa Calm     85% 0.0 mm 0 W/m2
06:24 -0.4 °C -2.7 °C 1033.9 hPa Calm     84.6% 0.0 mm 0 W/m2
06:29 -0.4 °C -2.7 °C 1033.9 hPa Calm     84.4% 0.0 mm 0 W/m2
06:34 -0.3 °C -2.6 °C 1033.9 hPa Calm     84.8% 0.0 mm 0 W/m2
06:39 -0.3 °C -2.7 °C 1033.9 hPa Calm     84% 0.0 mm 0 W/m2
06:44 -0.3 °C -2.6 °C 1033.9 hPa Calm     84.7% 0.0 mm 0 W/m2
06:49 -0.3 °C -2.6 °C 1033.9 hPa Calm     84.4% 0.0 mm 0 W/m2
06:54 -0.3 °C -2.7 °C 1034.2 hPa Calm     84.1% 0.0 mm 0 W/m2
06:59 -0.2 °C -2.6 °C 1034.2 hPa Calm     84% 0.0 mm 0 W/m2
07:04 -0.2 °C -2.6 °C 1034.2 hPa Calm     83.8% 0.0 mm 0 W/m2
07:09 -0.2 °C -2.6 °C 1034.2 hPa Calm     83.8% 0.0 mm 0 W/m2
07:14 -0.3 °C -2.7 °C 1033.9 hPa Calm     83.7% 0.0 mm 0 W/m2
07:19 -0.1 °C -2.8 °C 1033.9 hPa Calm     82.1% 0.0 mm 0 W/m2
07:24 -0.2 °C -3 °C 1033.9 hPa Calm     81.1% 0.0 mm 0 W/m2
07:29 -0.1 °C -3.4 °C 1033.9 hPa Calm     78.7% 0.0 mm 0 W/m2
07:34 -0.1 °C -3.2 °C 1033.9 hPa Calm     79.6% 0.0 mm 0 W/m2
07:39 -0.1 °C -3 °C 1033.9 hPa Calm     81% 0.0 mm 0 W/m2
07:44 -0.1 °C -3.1 °C 1033.9 hPa Calm     80% 0.0 mm 0 W/m2
07:49 -0.1 °C -3 °C 1033.9 hPa Calm     80.9% 0.0 mm 0 W/m2
07:54 0 °C -2.9 °C 1033.9 hPa Calm     81% 0.0 mm 2 W/m2
07:59 0 °C -2.8 °C 1033.9 hPa Calm     81.7% 0.0 mm 5 W/m2
08:04 0 °C -3 °C 1033.9 hPa Calm     80.2% 0.0 mm 10 W/m2
08:09 0 °C -2.9 °C 1034.2 hPa Calm     80.8% 0.0 mm 16 W/m2
08:14 0.3 °C -2.6 °C 1034.2 hPa Calm     81% 0.0 mm 20 W/m2
08:19 0.8 °C -2.2 °C 1034.2 hPa Calm     80.2% 0.0 mm 25 W/m2
08:24 0.8 °C -2.3 °C 1034.2 hPa Calm     79.4% 0.0 mm 30 W/m2
08:29 1 °C -2.5 °C 1034.2 hPa Calm     77.7% 0.0 mm 34 W/m2
08:34 1.2 °C -2.4 °C 1033.9 hPa Calm     76.7% 0.0 mm 40 W/m2
08:39 1.6 °C -2 °C 1033.9 hPa Calm     76.9% 0.0 mm 44 W/m2
08:44 1.6 °C -2 °C 1033.9 hPa Calm     77% 0.0 mm 48 W/m2
08:49 1.6 °C -2 °C 1033.9 hPa Calm     77% 0.0 mm 51 W/m2
08:54 2.1 °C -1.8 °C 1033.9 hPa Calm     75.2% 0.0 mm 55 W/m2
08:59 3.4 °C -1.4 °C 1033.9 hPa Calm     71.1% 0.0 mm 59 W/m2
09:04 3.3 °C -1 °C 1033.9 hPa Calm     73.2% 0.0 mm 62 W/m2
09:09 3.3 °C -0.9 °C 1033.9 hPa Calm     74% 0.0 mm 64 W/m2
09:14 3.3 °C -1.1 °C 1033.9 hPa Calm     73.1% 0.0 mm 66 W/m2
09:19 3.8 °C -1.2 °C 1033.9 hPa Calm     70.2% 0.0 mm 68 W/m2
09:24 4 °C -1.9 °C 1033.5 hPa Calm     65.4% 0.0 mm 70 W/m2
09:29 4.1 °C -1.5 °C 1033.9 hPa Calm     67% 0.0 mm 72 W/m2
09:34 4 °C -0.9 °C 1033.5 hPa Calm     70.7% 0.0 mm 74 W/m2
09:39 3.3 °C -1.3 °C 1033.5 hPa Calm     72% 0.0 mm 75 W/m2
09:44 3.3 °C -1.3 °C 1033.5 hPa Calm     72% 0.0 mm 77 W/m2
09:49 3.3 °C -1.3 °C 1033.5 hPa Calm     72% 0.0 mm 78 W/m2
09:54 3.3 °C -1.2 °C 1033.5 hPa Calm     72.7% 0.0 mm 78 W/m2
09:59 3.4 °C -1.3 °C 1033.5 hPa Calm     71.6% 0.0 mm 80 W/m2
10:04 3.5 °C -1.3 °C 0.0 hPa Calm     70.9% 0.0 mm 81 W/m2
10:09 3.7 °C -1.3 °C 0.0 hPa Calm     69.9% 0.0 mm 82 W/m2
10:14 3.9 °C -1.2 °C 0.0 hPa Calm     69.6% 0.0 mm 82 W/m2
10:19 5 °C -0.2 °C 1033.5 hPa Calm     68.9% 0.0 mm 83 W/m2
10:24 4.9 °C -0.1 °C 1033.5 hPa Calm     70% 0.0 mm 84 W/m2
10:29 4.9 °C -0.2 °C 1033.2 hPa Calm     69.6% 0.0 mm 84 W/m2
10:34 4.9 °C -0.5 °C 1033.2 hPa Calm     68.1% 0.0 mm 85 W/m2
10:39 4.5 °C -0.4 °C 1033.5 hPa Calm     70.3% 0.0 mm 85 W/m2
10:44 4.5 °C -0.3 °C 1033.5 hPa Calm     71.3% 0.0 mm 87 W/m2
10:49 4.6 °C -0.4 °C 1033.5 hPa Calm     70% 0.0 mm 89 W/m2
10:54 4.7 °C -0.3 °C 1033.5 hPa Calm     70.2% 0.0 mm 91 W/m2
10:59 4.8 °C 0 °C 1033.5 hPa Calm     71.2% 0.0 mm 92 W/m2
11:04 4.8 °C 0.2 °C 1033.5 hPa Calm     71.8% 0.0 mm 95 W/m2
11:09 4.9 °C 0 °C 1033.5 hPa Calm     70.8% 0.0 mm 97 W/m2
11:14 5 °C 0.1 °C 1033.2 hPa Calm     70.4% 0.0 mm 99 W/m2
11:19 6.7 °C 1.2 °C 1033.2 hPa Calm   4 km/h 68.3% 0.0 mm 102 W/m2
11:24 6.9 °C 1.1 °C 1033.2 hPa Calm     66.7% 0.0 mm 107 W/m2
11:29 6.9 °C 1 °C 1032.8 hPa SSE 1 km/h 7.9 km/h 65.7% 0.0 mm 110 W/m2
11:34 7.1 °C 1.2 °C 1032.8 hPa Calm   7.9 km/h 66% 0.0 mm 113 W/m2
11:39 7.7 °C 1.4 °C 1032.8 hPa SSE 0.2 km/h 7.9 km/h 64.8% 0.0 mm 118 W/m2
11:44 7.7 °C 1.5 °C 1032.8 hPa SE 0.3 km/h 7.9 km/h 64.9% 0.0 mm 123 W/m2
11:49 7.8 °C 1.5 °C 1032.8 hPa Calm     64.6% 0.0 mm 126 W/m2
11:54 7.8 °C 1.6 °C 1032.5 hPa Calm   4 km/h 64.9% 0.0 mm 119 W/m2
11:59 8.1 °C 1.8 °C 1032.2 hPa SSE 0.3 km/h 4 km/h 64.2% 0.0 mm 91 W/m2
12:04 8.2 °C 1.9 °C 1031.8 hPa SE 1.2 km/h 7.9 km/h 64.6% 0.0 mm 85 W/m2
12:09 8.2 °C 1.8 °C 1031.8 hPa SE 0.4 km/h 7.9 km/h 63.9% 0.0 mm 85 W/m2
12:14 8.3 °C 1.7 °C 1031.5 hPa Calm   4 km/h 62.8% 0.0 mm 85 W/m2
12:19 9 °C 2.2 °C 1031.5 hPa Calm     62.4% 0.0 mm 93 W/m2
12:24 9.1 °C 2.1 °C 1031.2 hPa SSE 0.4 km/h 4 km/h 61.7% 0.0 mm 146 W/m2
12:29 9 °C 2.1 °C 1031.2 hPa Calm   4 km/h 62% 0.0 mm 179 W/m2
12:34 9 °C 2.1 °C 1031.2 hPa Calm   4 km/h 62.2% 0.0 mm 189 W/m2
12:39 9 °C 2.3 °C 1031.2 hPa SE 1.7 km/h 7.9 km/h 63% 0.0 mm 199 W/m2
12:44 8.9 °C 2.6 °C 1030.8 hPa ESE 1.2 km/h 7.9 km/h 64.4% 0.0 mm 208 W/m2
12:49 8.8 °C 2.5 °C 1030.5 hPa Calm   7.9 km/h 64.7% 0.0 mm 213 W/m2
12:54 8.7 °C 2.3 °C 1030.5 hPa East 0.3 km/h 7.9 km/h 64.1% 0.0 mm 217 W/m2
12:59 8.4 °C 2.1 °C 1030.5 hPa ENE 0.3 km/h 7.9 km/h 64.7% 0.0 mm 241 W/m2
13:04 8.3 °C 1.9 °C 1030.5 hPa Calm   7.9 km/h 64.1% 0.0 mm 253 W/m2
13:09 8.3 °C 2 °C 1030.5 hPa Calm   4 km/h 64.2% 0.0 mm 265 W/m2
13:14 8.3 °C 1.7 °C 1030.1 hPa Calm   4 km/h 62.8% 0.0 mm 277 W/m2
13:19 9.1 °C 2 °C 1030.1 hPa South 0.1 km/h 4 km/h 61.1% 0.0 mm 290 W/m2
13:24 9.3 °C 2.1 °C 1029.8 hPa ESE 0.1 km/h 7.9 km/h 60.6% 0.0 mm 294 W/m2
13:29 9.3 °C 2.2 °C 1029.8 hPa SSE 0.2 km/h 4 km/h 61% 0.0 mm 299 W/m2
13:34 9.3 °C 2 °C 1029.5 hPa SSE 0.2 km/h 4 km/h 60.1% 0.0 mm 299 W/m2
13:39 9.5 °C 2.1 °C 1029.1 hPa SSE 0.3 km/h 4 km/h 59.9% 0.0 mm 296 W/m2
13:44 9.6 °C 2.1 °C 1029.1 hPa Calm     59.3% 0.0 mm 314 W/m2
13:49 9.6 °C 2 °C 1029.1 hPa Calm     59% 0.0 mm 324 W/m2
13:54 9.7 °C 2 °C 1028.8 hPa ESE 0.1 km/h 7.9 km/h 58.8% 0.0 mm 330 W/m2
13:59 10.1 °C 2.3 °C 1028.8 hPa South 0.8 km/h 7.9 km/h 58.4% 0.0 mm 330 W/m2
14:04 10.2 °C 2.3 °C 1028.5 hPa SSE 0.4 km/h 7.9 km/h 58% 0.0 mm 329 W/m2
14:09 10.2 °C 2.3 °C 1028.5 hPa Calm   4 km/h 57.9% 0.0 mm 328 W/m2
14:14 10.3 °C 2 °C 1028.1 hPa Calm     56.2% 0.0 mm 328 W/m2
14:19 10.4 °C 2.5 °C 1028.1 hPa Calm     57.7% 0.0 mm 325 W/m2
14:24 10.5 °C 2.5 °C 1028.1 hPa South 0.8 km/h 7.9 km/h 57.6% 0.0 mm 295 W/m2
14:29 10.5 °C 2.5 °C 1027.8 hPa South 0.2 km/h 7.9 km/h 57.7% 0.0 mm 291 W/m2
14:34 10.5 °C 2.5 °C 1027.8 hPa Calm     57.5% 0.0 mm 317 W/m2
14:39 10.9 °C 2.7 °C 1027.4 hPa Calm     57.2% 0.0 mm 310 W/m2
14:44 11 °C 2.8 °C 1027.4 hPa Calm     57% 0.0 mm 308 W/m2
14:49 11 °C 2.8 °C 1027.1 hPa Calm     57% 0.0 mm 306 W/m2
14:54 11 °C 2.7 °C 1027.1 hPa Calm     56.6% 0.0 mm 300 W/m2
14:59 11.2 °C 2.6 °C 1027.1 hPa East 0.6 km/h 7.9 km/h 55.4% 0.0 mm 275 W/m2
15:04 11.2 °C 3.5 °C 1027.1 hPa East 0.2 km/h 7.9 km/h 59.4% 0.0 mm 265 W/m2
15:09 10.9 °C 3.3 °C 1026.8 hPa Calm     59.9% 0.0 mm 268 W/m2
15:14 10.7 °C 3 °C 1026.8 hPa Calm     59.2% 0.0 mm 267 W/m2
15:19 10.1 °C 2.7 °C 1026.8 hPa Calm     60% 0.0 mm 262 W/m2
15:24 9.8 °C 2.2 °C 1026.8 hPa Calm     59% 0.0 mm 258 W/m2
15:29 9.9 °C 2.3 °C 1026.4 hPa Calm     59% 0.0 mm 259 W/m2
15:34 9.9 °C 2.3 °C 1026.4 hPa Calm     59% 0.0 mm 247 W/m2
15:39 10.9 °C 2.5 °C 1026.1 hPa Calm     56.3% 0.0 mm 234 W/m2
15:44 11.9 °C 3 °C 1026.1 hPa Calm     54.7% 0.0 mm 235 W/m2
15:49 11.9 °C 3.1 °C 1026.1 hPa Calm     55% 0.0 mm 234 W/m2
15:54 11.8 °C 3.7 °C 1025.7 hPa Calm     57.3% 0.0 mm 230 W/m2
15:59 10.8 °C 3.1 °C 1026.1 hPa Calm     59% 0.0 mm 222 W/m2
16:04 9.7 °C 2.5 °C 1025.7 hPa Calm   4 km/h 61.1% 0.0 mm 132 W/m2
16:09 9.6 °C 2.6 °C 1025.7 hPa Calm     61.6% 0.0 mm 97 W/m2
16:14 9.5 °C 2.6 °C 1025.7 hPa Calm     62% 0.0 mm 58 W/m2
16:19 9 °C 2.3 °C 1025.7 hPa Calm     62.8% 0.0 mm 52 W/m2
16:24 8.6 °C 2 °C 1025.4 hPa Calm     63% 0.0 mm 49 W/m2
16:29 8.6 °C 2.1 °C 1025.4 hPa Calm     63.7% 0.0 mm 44 W/m2
16:34 8.6 °C 2.2 °C 1025.4 hPa Calm     64.4% 0.0 mm 41 W/m2
16:39 8.2 °C 2.1 °C 1025.1 hPa Calm     65% 0.0 mm 38 W/m2
16:44 7.8 °C 1.9 °C 1025.1 hPa Calm     66.2% 0.0 mm 35 W/m2
16:49 7.8 °C 2.1 °C 1025.1 hPa Calm     67% 0.0 mm 32 W/m2
16:54 7.7 °C 2 °C 1025.1 hPa Calm     67% 0.0 mm 29 W/m2
16:59 7.5 °C 1.9 °C 1025.1 hPa Calm     67.3% 0.0 mm 26 W/m2
17:04 7.3 °C 1.7 °C 1025.1 hPa Calm     67.8% 0.0 mm 24 W/m2
17:09 7.3 °C 1.8 °C 1024.7 hPa Calm     68% 0.0 mm 21 W/m2
17:14 7.2 °C 1.8 °C 1025.1 hPa Calm     68.1% 0.0 mm 17 W/m2
17:19 7.1 °C 1.7 °C 1025.1 hPa Calm     68.4% 0.0 mm 11 W/m2
17:24 6.8 °C 1.4 °C 1025.1 hPa Calm     68.4% 0.0 mm 8 W/m2
17:29 6.8 °C 1.5 °C 1025.1 hPa Calm     69% 0.0 mm 5 W/m2
17:34 6.7 °C 1.4 °C 1024.7 hPa Calm     68.8% 0.0 mm 2 W/m2
17:39 6.7 °C 1.2 °C 1024.7 hPa Calm     68% 0.0 mm 0 W/m2
17:44 6.5 °C 1 °C 1024.7 hPa Calm     68% 0.0 mm 0 W/m2
17:49 6.5 °C 0.7 °C 1024.7 hPa Calm     66.6% 0.0 mm 0 W/m2
17:54 6.6 °C -0.2 °C 1024.4 hPa Calm     61.9% 0.0 mm 0 W/m2
17:59 6.5 °C 0.1 °C 1024.7 hPa Calm     63.9% 0.0 mm 0 W/m2
18:04 6.1 °C 0.4 °C 1024.7 hPa Calm     66.9% 0.0 mm 0 W/m2
18:09 6.1 °C 0.5 °C 1024.4 hPa Calm     67.2% 0.0 mm 0 W/m2
18:14 6.2 °C -1.8 °C 1024.4 hPa Calm     57% 0.0 mm 0 W/m2
18:19 6.6 °C -4.5 °C 1024.4 hPa Calm     45% 0.0 mm 0 W/m2
18:24 7.6 °C -5.2 °C 1024.4 hPa Calm     39.7% 0.0 mm 0 W/m2
18:29 7.6 °C -6 °C 1024.4 hPa Calm     37.3% 0.0 mm 0 W/m2
18:34 7.7 °C -7.1 °C 1024.4 hPa Calm   4 km/h 34.1% 0.0 mm 0 W/m2
18:39 8 °C -7.9 °C 1024.4 hPa Calm     31.4% 0.0 mm 0 W/m2
18:44 8.7 °C -8 °C 1024.4 hPa Calm     30% 0.0 mm 0 W/m2
18:49 8.6 °C -8.3 °C 1024.4 hPa Calm     29.3% 0.0 mm 0 W/m2
18:54 8.6 °C -8 °C 1024.4 hPa Calm     30% 0.0 mm 0 W/m2
18:59 8.4 °C -7.7 °C 1024.4 hPa Calm     31.2% 0.0 mm 0 W/m2
19:04 7.5 °C -6 °C 1024.4 hPa South 0.7 km/h 4 km/h 38% 0.0 mm 0 W/m2
19:09 7.4 °C -4 °C 1024.4 hPa Calm     44.3% 0.0 mm 0 W/m2
19:14 7.2 °C -4.3 °C 1024.4 hPa Calm     43.9% 0.0 mm 0 W/m2
19:19 7 °C -4.4 °C 1024.4 hPa Calm     43.9% 0.0 mm 0 W/m2
19:24 6.7 °C -4.2 °C 1024.4 hPa Calm     45.6% 0.0 mm 0 W/m2
19:29 6.7 °C -4.8 °C 1024.4 hPa Calm     43.6% 0.0 mm 0 W/m2
19:34 6.7 °C -5.6 °C 1024.4 hPa Calm     41.2% 0.0 mm 0 W/m2
19:39 6.7 °C -4.2 °C 1024.4 hPa Calm     45.4% 0.0 mm 0 W/m2
19:44 6.8 °C -3.1 °C 1024.4 hPa Calm     49.3% 0.0 mm 0 W/m2
19:49 6.8 °C -2.1 °C 1024.4 hPa Calm     53.2% 0.0 mm 0 W/m2
19:54 6.7 °C -1.3 °C 1024.4 hPa Calm     56.7% 0.0 mm 0 W/m2
19:59 6.7 °C -0.7 °C 1024.7 hPa Calm     59.2% 0.0 mm 0 W/m2
20:04 6.8 °C -0.8 °C 1024.7 hPa Calm     58.4% 0.0 mm 0 W/m2
20:09 6.7 °C -1.7 °C 1024.4 hPa Calm     55.2% 0.0 mm 0 W/m2
20:14 6.7 °C -3 °C 1024.4 hPa Calm     49.9% 0.0 mm 0 W/m2
20:19 6.7 °C -2.8 °C 1024.0 hPa Calm     50.8% 0.0 mm 0 W/m2
20:24 6.8 °C -2.2 °C 1024.4 hPa Calm     53% 0.0 mm 0 W/m2
20:29 6.7 °C -2.5 °C 1024.4 hPa Calm     51.8% 0.0 mm 0 W/m2
20:34 6.7 °C -3.5 °C 1024.0 hPa Calm     48.1% 0.0 mm 0 W/m2
20:39 6.7 °C -4.6 °C 1024.0 hPa Calm     44.3% 0.0 mm 0 W/m2
20:44 7 °C -4.7 °C 1024.0 hPa SW 0.5 km/h 7.9 km/h 43% 0.0 mm 0 W/m2
20:49 7 °C -5 °C 1024.0 hPa Calm   4 km/h 42.1% 0.0 mm 0 W/m2
20:54 7 °C -4.7 °C 1024.0 hPa SSW 0.2 km/h 4 km/h 43% 0.0 mm 0 W/m2
20:59 7 °C -4.7 °C 1024.0 hPa SSW 0.2 km/h 4 km/h 43% 0.0 mm 0 W/m2
21:04 6.9 °C -5 °C 1024.4 hPa Calm     42.4% 0.0 mm 0 W/m2
21:09 7 °C -5.3 °C 1024.4 hPa Calm     41.3% 0.0 mm 0 W/m2
21:14 7 °C -5 °C 1024.4 hPa Calm     42% 0.0 mm 0 W/m2
21:19 7 °C -4.9 °C 1024.0 hPa Calm   4 km/h 42.3% 0.0 mm 0 W/m2
21:24 7.3 °C -4.7 °C 1024.0 hPa Calm   4 km/h 42.2% 0.0 mm 0 W/m2
21:29 7.3 °C -4.8 °C 1024.0 hPa Calm     42% 0.0 mm 0 W/m2
21:34 7.3 °C -5 °C 1024.0 hPa Calm     41.4% 0.0 mm 0 W/m2
21:39 7.4 °C -5 °C 1024.0 hPa Calm     41% 0.0 mm 0 W/m2
21:44 7.4 °C -4.8 °C 1024.0 hPa Calm     41.5% 0.0 mm 0 W/m2
21:49 7.4 °C -4.7 °C 1024.0 hPa Calm     42% 0.0 mm 0 W/m2
21:54 7.4 °C -4.7 °C 1024.0 hPa Calm     42% 0.0 mm 0 W/m2
21:59 7.3 °C -5 °C 1024.0 hPa Calm     41.2% 0.0 mm 0 W/m2
22:04 7 °C -5.1 °C 1023.7 hPa Calm     41.8% 0.0 mm 0 W/m2
22:09 7 °C -5.5 °C 1023.7 hPa Calm     40.8% 0.0 mm 0 W/m2
22:14 7.1 °C -5.7 °C 1024.0 hPa Calm     40% 0.0 mm 0 W/m2
22:19 7.2 °C -5.8 °C 1024.0 hPa Calm     39% 0.0 mm 0 W/m2
22:24 7.6 °C -5.6 °C 1023.7 hPa Calm     38.6% 0.0 mm 0 W/m2
22:29 7.7 °C -5.9 °C 1023.4 hPa Calm     37.6% 0.0 mm 0 W/m2
22:34 7.7 °C -6.8 °C 1023.4 hPa Calm     34.9% 0.0 mm 0 W/m2
22:39 7.7 °C -6.4 °C 1023.4 hPa Calm     36.1% 0.0 mm 0 W/m2
22:44 7.6 °C -6.5 °C 1023.0 hPa Calm     35.9% 0.0 mm 0 W/m2
22:49 7.6 °C -7 °C 1023.4 hPa Calm     34.8% 0.0 mm 0 W/m2
22:54 7.6 °C -6.3 °C 1023.4 hPa WNW 0.3 km/h 7.9 km/h 36.9% 0.0 mm 0 W/m2
Juneau County Weather
Compliments of Weather Underground - 2 mb